Hauptseite
METAR-TAF:

METAR-TAF

Flughäfen :

Flughafen Nürnberg

Nürnberg, Deutschland

Breite: 49-30N, Länge: 011-03E, Höhe: 318 m

Beobachtung

Neuester Wetterbericht von vor 27 Minuten, um 20:50 UTC
Wind 3 kt aus Süd/Südwest
Temperatur 8°C
Luftfeuchtigkeit 57%
Luftdruck 1019 hPa
Sichtweite 10 km oder mehr
keine Wolken unter 1500 m und keine Kumulonimbus oder Gewitterwolken

METAR: EDDN 032050Z 21003KT CAVOK 08/00 Q1019

Zeit: 23:17 (21:17 UTC)

Prognose

Neuester Wetterbericht von vor 4 Stunden und 17 Minuten, um 17:00 UTC
Gültige Prognose vom 03 um 18 UTC bis 04 um 18 UTC
Wind 5 kt aus West
Sichtweite 10 km oder mehr
keine Wolken unter 1500 m und keine Kumulonimbus oder Gewitterwolken

TAF: EDDN 031700Z 0318/0418 26005KT CAVOK

Wetterbeobachtungen und Prognosen von mehr als 4000 Flughäfen (METAR und TAF Bericht).

Die verfügbaren Stationen werden durch gelbe und rote Markierungen auf der Karte dargestellt.

Führen Sie die Maus auf sie, um den Namen der Station zu sehen.

Darauf klicken, um die Beobachtung von Wetterbeobachtungen und Prognosen zu sehen.

Um die Karte zu ändern : klicken Sie auf den grünen Tasten mit einem schwarzen Kreuz Zum Vergrößern, auf den grünen Button mit einem Gedankenstrich zu verkleinern, oder auf die grünen Pfeile für benachbarte Karten.


METAR-TAF: